createdAt,value
2022-08-18T00:02:06.765Z,20.70
2022-08-18T00:04:41.005Z,20.70
2022-08-18T00:07:31.247Z,20.69
2022-08-18T00:10:00.068Z,20.69
2022-08-18T00:12:39.152Z,20.68
2022-08-18T00:15:10.657Z,20.67
2022-08-18T00:17:38.027Z,20.65
2022-08-18T00:20:11.907Z,20.63
2022-08-18T00:22:41.894Z,20.62
2022-08-18T00:25:12.284Z,20.61
2022-08-18T00:27:40.766Z,20.59
2022-08-18T00:30:12.966Z,20.58
2022-08-18T00:32:44.797Z,20.59
2022-08-18T00:35:34.564Z,20.60
2022-08-18T00:38:04.826Z,20.60
2022-08-18T00:40:48.143Z,20.62
2022-08-18T00:43:45.895Z,20.64
2022-08-18T00:46:18.814Z,20.63
2022-08-18T00:48:48.328Z,20.62
2022-08-18T00:51:25.778Z,20.60
2022-08-18T00:54:20.581Z,20.55
2022-08-18T00:56:55.615Z,20.48
2022-08-18T00:59:55.448Z,20.42
2022-08-18T01:02:36.409Z,20.35
2022-08-18T01:05:14.783Z,20.29
2022-08-18T01:07:48.643Z,20.22
2022-08-18T01:10:19.853Z,20.17
2022-08-18T01:12:57.565Z,20.12
2022-08-18T01:15:30.239Z,20.08
2022-08-18T01:18:20.751Z,20.03
2022-08-18T01:21:23.230Z,19.99
2022-08-18T01:23:53.571Z,19.94
2022-08-18T01:26:22.065Z,19.90
2022-08-18T01:28:49.332Z,19.88
2022-08-18T01:31:37.264Z,19.84
2022-08-18T01:34:08.233Z,19.80
2022-08-18T01:36:39.999Z,19.76
2022-08-18T01:39:12.168Z,19.73
2022-08-18T01:41:40.195Z,19.70
2022-08-18T01:44:10.610Z,19.67
2022-08-18T01:46:40.950Z,19.64
2022-08-18T01:49:09.863Z,19.61
2022-08-18T01:51:41.981Z,19.59
2022-08-18T01:54:12.999Z,19.57
2022-08-18T01:56:41.871Z,19.57
2022-08-18T01:59:13.808Z,19.54
2022-08-18T02:01:50.404Z,19.52
2022-08-18T02:04:37.122Z,19.48
2022-08-18T02:07:11.037Z,19.45
2022-08-18T02:09:40.981Z,19.42
2022-08-18T02:12:08.725Z,19.41
2022-08-18T02:14:36.709Z,19.40
2022-08-18T02:17:07.101Z,19.40
2022-08-18T02:19:39.008Z,19.49
2022-08-18T02:22:08.692Z,19.57
2022-08-18T02:24:37.160Z,19.62
2022-08-18T02:27:05.581Z,19.68
2022-08-18T02:29:32.889Z,19.74
2022-08-18T02:31:59.794Z,19.79
2022-08-18T02:34:26.742Z,19.83
2022-08-18T02:36:53.693Z,19.88
2022-08-18T02:39:20.784Z,19.93
2022-08-18T02:41:47.737Z,19.96
2022-08-18T02:44:14.852Z,19.97
2022-08-18T02:46:41.680Z,20.00
2022-08-18T02:49:09.215Z,20.02
2022-08-18T02:51:36.068Z,20.02
2022-08-18T02:54:03.152Z,20.04
2022-08-18T02:56:40.347Z,20.07
2022-08-18T02:59:15.823Z,20.09
2022-08-18T03:01:46.356Z,20.11
2022-08-18T03:04:21.137Z,20.13
2022-08-18T03:06:49.868Z,20.14
2022-08-18T03:09:18.073Z,20.15
2022-08-18T03:11:45.797Z,20.18
2022-08-18T03:14:14.214Z,20.20
2022-08-18T03:16:53.871Z,20.20
2022-08-18T03:19:27.697Z,20.20
2022-08-18T03:21:55.230Z,20.20
2022-08-18T03:24:27.733Z,20.19
2022-08-18T03:26:58.782Z,20.18
2022-08-18T03:29:31.314Z,20.17
2022-08-18T03:32:02.575Z,20.13
2022-08-18T03:34:29.980Z,20.09
2022-08-18T03:36:57.243Z,20.08
2022-08-18T03:39:27.027Z,20.09
2022-08-18T03:41:58.053Z,20.09
2022-08-18T03:44:32.083Z,20.11
2022-08-18T03:47:02.264Z,20.15
2022-08-18T03:49:30.834Z,20.19
2022-08-18T03:52:00.156Z,20.20
2022-08-18T03:54:29.105Z,20.21
2022-08-18T03:56:56.041Z,20.24
2022-08-18T03:59:25.527Z,20.26
2022-08-18T04:01:54.399Z,20.28
2022-08-18T04:04:26.713Z,20.26
2022-08-18T04:06:57.717Z,20.25
2022-08-18T04:09:27.885Z,20.25
2022-08-18T04:11:55.701Z,20.30
2022-08-18T04:14:27.978Z,20.37
2022-08-18T04:16:54.816Z,20.45
2022-08-18T04:19:25.184Z,20.52
2022-08-18T04:21:56.294Z,20.62
2022-08-18T04:24:25.637Z,20.72
2022-08-18T04:26:52.900Z,20.84
2022-08-18T04:29:21.038Z,20.95
2022-08-18T04:31:49.855Z,21.08
2022-08-18T04:34:19.826Z,21.20
2022-08-18T04:36:46.665Z,21.29
2022-08-18T04:39:13.506Z,21.37
2022-08-18T04:41:43.442Z,21.45
2022-08-18T04:44:12.332Z,21.53
2022-08-18T04:46:43.735Z,21.60
2022-08-18T04:49:11.586Z,21.67
2022-08-18T04:52:36.099Z,21.76
2022-08-18T04:54:55.236Z,21.82
2022-08-18T04:57:22.457Z,21.88
2022-08-18T04:59:51.670Z,21.96
2022-08-18T05:02:20.606Z,22.01
2022-08-18T05:04:47.867Z,22.05
2022-08-18T05:07:19.321Z,22.09
2022-08-18T05:09:46.343Z,22.12
2022-08-18T05:12:14.927Z,22.17
2022-08-18T05:14:44.564Z,22.20
2022-08-18T05:17:13.760Z,22.19
2022-08-18T05:19:44.299Z,22.21
2022-08-18T05:22:27.826Z,22.24
2022-08-18T05:24:59.312Z,22.28
2022-08-18T05:27:32.417Z,22.33
2022-08-18T05:29:59.412Z,22.39
2022-08-18T05:32:37.119Z,22.45
2022-08-18T05:35:24.625Z,22.53
2022-08-18T05:38:15.058Z,22.58
2022-08-18T05:40:45.405Z,22.66
2022-08-18T05:43:15.769Z,22.76
2022-08-18T05:45:43.506Z,22.83
2022-08-18T05:48:10.349Z,22.89
2022-08-18T05:50:37.275Z,22.95
2022-08-18T05:53:40.367Z,23.03
2022-08-18T05:56:29.554Z,23.14
2022-08-18T05:58:59.008Z,23.23
2022-08-18T06:01:38.230Z,23.28
2022-08-18T06:04:42.236Z,23.32
2022-08-18T06:07:18.794Z,23.38
2022-08-18T06:09:54.480Z,23.46
2022-08-18T06:12:37.337Z,23.52
2022-08-18T06:15:16.320Z,23.57
2022-08-18T06:17:58.420Z,23.61
2022-08-18T06:20:55.520Z,23.63
2022-08-18T06:24:09.010Z,23.64
2022-08-18T06:26:58.655Z,23.59
2022-08-18T06:30:11.988Z,23.58
2022-08-18T06:33:19.004Z,23.67
2022-08-18T06:35:50.035Z,23.69
2022-08-18T06:38:45.490Z,23.73
2022-08-18T06:41:42.925Z,23.82
2022-08-18T06:44:32.701Z,23.90
2022-08-18T06:47:15.479Z,23.93
2022-08-18T06:50:02.650Z,23.95
2022-08-18T06:52:36.220Z,23.96
2022-08-18T06:55:16.405Z,23.99
2022-08-18T06:57:59.313Z,24.00
2022-08-18T07:00:31.418Z,24.06
2022-08-18T07:03:13.837Z,24.13
2022-08-18T07:06:02.173Z,24.24
2022-08-18T07:08:40.766Z,24.31
2022-08-18T07:11:16.809Z,24.34
2022-08-18T07:13:54.936Z,24.41
2022-08-18T07:16:57.208Z,24.45
2022-08-18T07:19:29.270Z,24.56
2022-08-18T07:22:16.923Z,24.63
2022-08-18T07:24:51.084Z,24.72
2022-08-18T07:27:44.218Z,24.81
2022-08-18T07:30:27.713Z,24.87
2022-08-18T07:33:12.036Z,24.91
2022-08-18T07:36:05.225Z,24.95
2022-08-18T07:38:52.821Z,25.02
2022-08-18T07:41:33.253Z,25.11
2022-08-18T07:44:24.565Z,25.20
2022-08-18T07:47:03.085Z,25.21
2022-08-18T07:49:39.028Z,25.18
2022-08-18T07:52:36.407Z,25.15
2022-08-18T07:55:30.662Z,25.14
2022-08-18T07:58:19.899Z,25.16
2022-08-18T08:01:40.820Z,25.19
2022-08-18T08:04:25.276Z,25.19
2022-08-18T08:07:24.377Z,25.23
2022-08-18T08:10:11.508Z,25.29
2022-08-18T08:13:10.610Z,25.34
2022-08-18T08:16:18.015Z,25.41
2022-08-18T08:18:59.589Z,25.45
2022-08-18T08:21:32.592Z,25.52
2022-08-18T08:24:29.522Z,25.56
2022-08-18T08:27:11.403Z,25.61
2022-08-18T08:30:17.807Z,25.69
2022-08-18T08:33:03.396Z,25.75
2022-08-18T08:35:50.930Z,25.85
2022-08-18T08:38:42.234Z,25.93
2022-08-18T08:41:19.260Z,26.01
2022-08-18T08:44:09.755Z,26.05
2022-08-18T08:46:58.344Z,26.07
2022-08-18T08:49:34.414Z,26.10
2022-08-18T08:52:44.080Z,26.14
2022-08-18T08:55:26.276Z,26.17
2022-08-18T08:58:28.801Z,26.12
2022-08-18T09:00:57.284Z,26.07
2022-08-18T09:03:42.396Z,26.10
2022-08-18T09:06:51.001Z,26.16
2022-08-18T09:09:49.862Z,26.16
2022-08-18T09:12:41.453Z,26.12
2022-08-18T09:15:53.126Z,26.11
2022-08-18T09:19:07.807Z,26.11
2022-08-18T09:21:45.304Z,26.13
2022-08-18T09:24:39.543Z,26.17
2022-08-18T09:27:26.297Z,26.19
2022-08-18T09:30:01.841Z,26.24
2022-08-18T09:32:52.935Z,26.34
2022-08-18T09:35:42.309Z,26.43
2022-08-18T09:38:41.323Z,26.52
2022-08-18T09:41:32.292Z,26.64
2022-08-18T09:44:21.533Z,26.74
2022-08-18T09:46:57.514Z,26.79
2022-08-18T09:49:24.561Z,26.82
2022-08-18T09:52:02.167Z,26.89
2022-08-18T09:54:32.785Z,26.95
2022-08-18T09:57:19.200Z,27.00
2022-08-18T09:59:47.168Z,27.06
2022-08-18T10:02:28.624Z,27.14
2022-08-18T10:05:20.443Z,27.19
2022-08-18T10:08:10.150Z,27.24
2022-08-18T10:11:02.622Z,27.31
2022-08-18T10:17:23.931Z,27.51
2022-08-18T10:20:23.957Z,27.62
2022-08-18T10:22:56.013Z,27.70
2022-08-18T10:28:55.536Z,27.73
2022-08-18T10:31:27.225Z,27.69
2022-08-18T10:34:18.971Z,27.65
2022-08-18T10:36:59.921Z,27.68
2022-08-18T10:39:52.317Z,27.72
2022-08-18T10:42:53.545Z,27.74
2022-08-18T10:46:24.566Z,27.81
2022-08-18T10:48:40.329Z,27.90
2022-08-18T10:51:10.725Z,27.97
2022-08-18T10:54:09.638Z,28.04
2022-08-18T10:56:47.573Z,28.17
2022-08-18T10:59:59.396Z,28.34
2022-08-18T11:02:37.134Z,28.51
2022-08-18T11:05:11.074Z,28.61
2022-08-18T11:11:06.299Z,28.79
2022-08-18T11:13:59.590Z,28.85
2022-08-18T11:16:38.828Z,28.92
2022-08-18T11:19:16.837Z,28.95
2022-08-18T11:21:51.372Z,29.01
2022-08-18T11:24:28.085Z,29.05
2022-08-18T11:27:04.494Z,29.12
2022-08-18T11:29:43.721Z,29.22
2022-08-18T11:32:24.130Z,29.31
2022-08-18T11:35:02.973Z,29.40
2022-08-18T11:37:51.599Z,29.48
2022-08-18T11:43:40.752Z,29.68
2022-08-18T11:46:29.356Z,29.80
2022-08-18T11:49:01.108Z,29.83
2022-08-18T11:51:32.322Z,29.86
2022-08-18T11:54:14.868Z,29.96
2022-08-18T11:56:41.727Z,30.03
2022-08-18T11:59:54.945Z,30.08
2022-08-18T12:02:25.266Z,30.17
2022-08-18T12:05:03.027Z,30.26
2022-08-18T12:07:35.397Z,30.28
2022-08-18T12:13:02.348Z,30.22
2022-08-18T12:15:43.382Z,30.21
2022-08-18T12:20:59.389Z,30.13
2022-08-18T12:26:27.206Z,30.01
2022-08-18T12:29:03.602Z,30.01
2022-08-18T12:31:42.491Z,30.02
2022-08-18T12:34:28.158Z,30.03
2022-08-18T12:37:02.650Z,29.99
2022-08-18T12:39:38.139Z,29.96
2022-08-18T12:42:05.336Z,29.95
2022-08-18T12:44:33.633Z,29.93
2022-08-18T12:47:05.441Z,29.92
2022-08-18T12:49:33.758Z,29.91
2022-08-18T12:52:00.568Z,29.89
2022-08-18T12:54:32.246Z,29.87
2022-08-18T12:59:54.214Z,29.87
2022-08-18T13:02:21.750Z,29.88
2022-08-18T13:04:48.630Z,29.88
2022-08-18T13:07:18.941Z,29.88
2022-08-18T13:09:53.321Z,29.87
2022-08-18T13:12:24.898Z,29.88
2022-08-18T13:14:54.125Z,29.89
2022-08-18T13:17:30.101Z,29.88
2022-08-18T13:20:07.933Z,29.87
2022-08-18T13:22:39.826Z,29.84
2022-08-18T13:25:12.190Z,29.81
2022-08-18T13:27:39.383Z,29.80
2022-08-18T13:30:29.536Z,29.80
2022-08-18T13:33:05.935Z,29.81
2022-08-18T13:35:48.407Z,29.81
2022-08-18T13:38:27.221Z,29.82
2022-08-18T13:41:00.176Z,29.83
2022-08-18T13:43:34.252Z,29.84
2022-08-18T13:46:06.271Z,29.84
2022-08-18T13:48:33.870Z,29.84
2022-08-18T13:51:03.466Z,29.85
2022-08-18T13:53:31.930Z,29.86
2022-08-18T13:55:59.713Z,29.85
2022-08-18T13:58:28.457Z,29.85
2022-08-18T14:01:39.563Z,29.86
2022-08-18T14:03:50.281Z,29.84
2022-08-18T14:06:22.952Z,29.83
2022-08-18T14:08:53.327Z,29.80
2022-08-18T14:11:27.359Z,29.77
2022-08-18T14:13:55.725Z,29.77
2022-08-18T14:16:27.375Z,29.75
2022-08-18T14:19:12.665Z,29.73
2022-08-18T14:22:03.752Z,29.71
2022-08-18T14:24:51.462Z,29.68
2022-08-18T14:27:26.650Z,29.72
2022-08-18T14:29:58.905Z,29.72
2022-08-18T14:32:29.924Z,29.72
2022-08-18T14:35:31.964Z,29.70
2022-08-18T14:37:48.347Z,29.65
2022-08-18T14:40:19.328Z,29.63
2022-08-18T14:42:54.253Z,29.63
2022-08-18T14:45:31.587Z,29.64
2022-08-18T14:48:07.511Z,29.64
2022-08-18T14:50:48.914Z,29.62
2022-08-18T14:53:19.667Z,29.60
2022-08-18T14:55:51.751Z,29.60
2022-08-18T14:58:27.316Z,29.60
2022-08-18T15:00:56.887Z,29.58
2022-08-18T15:03:28.186Z,29.57
2022-08-18T15:06:04.689Z,29.55
2022-08-18T15:08:36.091Z,29.54
2022-08-18T15:11:11.410Z,29.54
2022-08-18T15:13:42.960Z,29.51
2022-08-18T15:16:11.042Z,29.48
2022-08-18T15:18:37.848Z,29.47
2022-08-18T15:21:35.440Z,29.47
2022-08-18T15:24:25.944Z,29.47
2022-08-18T15:26:57.976Z,29.45
2022-08-18T15:29:33.653Z,29.43
2022-08-18T15:32:10.125Z,29.41
2022-08-18T15:34:46.726Z,29.40
2022-08-18T15:37:22.334Z,29.39
2022-08-18T15:40:02.826Z,29.37
2022-08-18T15:42:31.159Z,29.35
2022-08-18T15:45:11.963Z,29.33
2022-08-18T15:47:40.152Z,29.32
2022-08-18T15:50:25.266Z,29.29
2022-08-18T15:52:59.064Z,29.26
2022-08-18T15:55:29.098Z,29.23
2022-08-18T15:58:03.088Z,29.20
2022-08-18T16:00:31.852Z,29.18
2022-08-18T16:03:04.108Z,29.17
2022-08-18T16:05:40.200Z,29.14
2022-08-18T16:08:09.809Z,29.12
2022-08-18T16:10:39.441Z,29.10
2022-08-18T16:13:07.325Z,29.07
2022-08-18T16:15:40.757Z,29.03
2022-08-18T16:18:08.977Z,28.99
2022-08-18T16:20:36.770Z,28.96
2022-08-18T16:23:04.797Z,28.93
2022-08-18T16:25:32.435Z,28.90
2022-08-18T16:28:00.567Z,28.87
2022-08-18T16:30:28.834Z,28.83
2022-08-18T16:33:02.160Z,28.80
2022-08-18T16:35:29.935Z,28.76
2022-08-18T16:38:03.752Z,28.73
2022-08-18T16:40:31.001Z,28.70
2022-08-18T16:42:59.880Z,28.66
2022-08-18T16:45:28.284Z,28.62
2022-08-18T16:47:55.113Z,28.56
2022-08-18T16:50:24.328Z,28.52
2022-08-18T16:52:51.684Z,28.48
2022-08-18T16:55:19.623Z,28.43
2022-08-18T16:58:05.278Z,28.38
2022-08-18T17:00:55.190Z,28.32
2022-08-18T17:03:42.313Z,28.27
2022-08-18T17:06:16.772Z,28.20
2022-08-18T17:08:44.845Z,28.15
2022-08-18T17:11:18.298Z,28.09
2022-08-18T17:13:48.177Z,28.03
2022-08-18T17:16:17.630Z,27.98
2022-08-18T17:18:45.595Z,27.92
2022-08-18T17:21:17.916Z,27.87
2022-08-18T17:23:45.351Z,27.82
2022-08-18T17:26:39.439Z,27.74
2022-08-18T17:29:26.608Z,27.67
2022-08-18T17:32:05.551Z,27.61
2022-08-18T17:34:42.101Z,27.55
2022-08-18T17:37:14.702Z,27.48
2022-08-18T17:39:59.944Z,27.41
2022-08-18T17:42:30.708Z,27.36
2022-08-18T17:45:07.537Z,27.31
2022-08-18T17:47:39.963Z,27.25
2022-08-18T17:50:39.351Z,27.19
2022-08-18T17:53:06.434Z,27.12
2022-08-18T17:56:00.929Z,27.05
2022-08-18T17:58:58.149Z,26.96
2022-08-18T18:01:26.772Z,26.87
2022-08-18T18:03:53.987Z,26.80
2022-08-18T18:06:40.299Z,26.75
2022-08-18T18:09:30.686Z,26.68
2022-08-18T18:12:22.881Z,26.61
2022-08-18T18:14:49.885Z,26.55
2022-08-18T18:17:39.693Z,26.48
2022-08-18T18:20:45.287Z,26.44
2022-08-18T18:23:22.124Z,26.37
2022-08-18T18:25:49.969Z,26.32
2022-08-18T18:28:35.380Z,26.27
2022-08-18T18:31:27.323Z,26.20
2022-08-18T18:34:06.366Z,26.15
2022-08-18T18:36:50.390Z,26.09
2022-08-18T18:39:33.818Z,26.05
2022-08-18T18:42:23.273Z,25.99
2022-08-18T18:44:58.460Z,25.92
2022-08-18T18:48:51.080Z,25.85
2022-08-18T18:51:10.541Z,25.76
2022-08-18T18:54:05.677Z,25.71
2022-08-18T18:56:45.018Z,25.66
2022-08-18T18:59:52.919Z,25.61
2022-08-18T19:02:48.909Z,25.54
2022-08-18T19:05:30.938Z,25.48
2022-08-18T19:08:33.171Z,25.45
2022-08-18T19:11:21.775Z,25.39
2022-08-18T19:13:56.825Z,25.35
2022-08-18T19:16:43.291Z,25.33
2022-08-18T19:19:37.599Z,25.29
2022-08-18T19:22:26.770Z,25.26
2022-08-18T19:25:07.066Z,25.22
2022-08-18T19:28:08.353Z,25.17
2022-08-18T19:30:42.038Z,25.11
2022-08-18T19:33:15.088Z,25.07
2022-08-18T19:36:09.381Z,25.02
2022-08-18T19:39:16.693Z,24.94
2022-08-18T19:41:57.403Z,24.87
2022-08-18T19:45:14.966Z,24.80
2022-08-18T19:48:00.383Z,24.74
2022-08-18T19:50:37.405Z,24.68
2022-08-18T19:53:10.044Z,24.66
2022-08-18T19:56:21.508Z,24.63
2022-08-18T19:59:39.569Z,24.58
2022-08-18T20:02:34.545Z,24.53
2022-08-18T20:05:58.775Z,24.49
2022-08-18T20:09:52.953Z,24.42
2022-08-18T20:13:09.321Z,24.33
2022-08-18T20:16:11.494Z,24.26
2022-08-18T20:18:48.383Z,24.22
2022-08-18T20:21:15.110Z,24.17
2022-08-18T20:24:11.845Z,24.14
2022-08-18T20:26:44.394Z,24.10
2022-08-18T20:29:38.148Z,24.07
2022-08-18T20:32:18.951Z,24.03
2022-08-18T20:34:51.173Z,23.99
2022-08-18T20:37:28.230Z,23.93
2022-08-18T20:39:55.736Z,23.88
2022-08-18T20:42:22.595Z,23.83
2022-08-18T20:44:58.887Z,23.80
2022-08-18T20:48:02.364Z,23.77
2022-08-18T20:50:47.931Z,23.72
2022-08-18T20:53:58.491Z,23.67
2022-08-18T20:56:52.798Z,23.59
2022-08-18T20:59:32.053Z,23.56
2022-08-18T21:02:05.275Z,23.52
2022-08-18T21:04:48.904Z,23.48
2022-08-18T21:07:18.581Z,23.43
2022-08-18T21:10:22.513Z,23.36
2022-08-18T21:12:58.804Z,23.28
2022-08-18T21:15:30.012Z,23.21
2022-08-18T21:18:04.179Z,23.17
2022-08-18T21:20:32.608Z,23.14
2022-08-18T21:23:13.268Z,23.12
2022-08-18T21:25:54.352Z,23.08
2022-08-18T21:28:24.764Z,23.02
2022-08-18T21:31:42.101Z,22.97
2022-08-18T21:34:31.803Z,22.92
2022-08-18T21:37:05.824Z,22.88
2022-08-18T21:39:34.314Z,22.83
2022-08-18T21:42:01.877Z,22.80
2022-08-18T21:44:41.058Z,22.76
2022-08-18T21:47:24.781Z,22.70
2022-08-18T21:50:17.286Z,22.66
2022-08-18T21:53:04.828Z,22.62
2022-08-18T21:55:42.657Z,22.59
2022-08-18T21:58:09.418Z,22.57
2022-08-18T22:00:40.369Z,22.54
2022-08-18T22:03:24.404Z,22.52
2022-08-18T22:06:39.820Z,22.50
2022-08-18T22:09:28.075Z,22.44
2022-08-18T22:12:43.552Z,22.38
2022-08-18T22:15:25.421Z,22.32
2022-08-18T22:18:06.888Z,22.30
2022-08-18T22:20:38.038Z,22.26
2022-08-18T22:23:54.351Z,22.23
2022-08-18T22:26:28.719Z,22.22
2022-08-18T22:29:11.111Z,22.26
2022-08-18T22:31:44.984Z,22.28
2022-08-18T22:34:28.276Z,22.29
2022-08-18T22:37:07.072Z,22.31
2022-08-18T22:39:51.019Z,22.33
2022-08-18T22:42:21.160Z,22.33
2022-08-18T22:44:48.440Z,22.34
2022-08-18T22:47:15.712Z,22.35
2022-08-18T22:49:44.534Z,22.33
2022-08-18T22:52:30.098Z,22.33
2022-08-18T22:54:59.413Z,22.33
2022-08-18T22:57:33.831Z,22.33
2022-08-18T23:00:07.447Z,22.32
2022-08-18T23:02:36.082Z,22.30
2022-08-18T23:05:04.893Z,22.29
2022-08-18T23:07:31.902Z,22.29
2022-08-18T23:09:59.612Z,22.26
2022-08-18T23:12:26.491Z,22.23
2022-08-18T23:14:54.344Z,22.22
2022-08-18T23:17:22.053Z,22.21
2022-08-18T23:19:49.037Z,22.19
2022-08-18T23:22:19.365Z,22.18
2022-08-18T23:24:47.864Z,22.16
2022-08-18T23:27:15.330Z,22.12
2022-08-18T23:29:42.175Z,22.11
2022-08-18T23:32:08.999Z,22.12
2022-08-18T23:34:36.252Z,22.11
2022-08-18T23:37:03.972Z,22.09
2022-08-18T23:39:34.130Z,22.08
2022-08-18T23:42:02.904Z,22.05
2022-08-18T23:44:29.856Z,22.01
2022-08-18T23:46:58.419Z,21.95
2022-08-18T23:49:28.068Z,21.90
2022-08-18T23:51:55.536Z,21.83
2022-08-18T23:54:29.329Z,21.78
2022-08-18T23:56:56.912Z,21.72
2022-08-18T23:59:26.515Z,21.67
